Harrison, Ohio
Current Conditions -  °F | °C
As of 1:55 AM on Thursday 23 Oct 2014 (Local Time) from KI67 Reporting Station
Broken Clouds Broken Clouds  
Wind Chill:   Ceiling: 3000
Heat Index:   Visibility: 10mi
Dew Point:   Wind: 0mph
Humidity: 87%   Direction: NA
Pressure: 30.26"   Gusts: NA
Location:  39.26°N, 84.82°W
Report Text: KI67 230555Z AUTO 00000KT 10SM BKN030 05/03 A3026 RMK AO1
Loading
Personal Weather Stations






























Interactive Weather Map
Tropical Storm Tracking
New forecast layout! Learn more

10-Day Weather Forecast

Advertisements
Track Severe Weather on mobile